CSN6837 ZGHA-ZGGG
Flight info
| Callsign | CSN6837 |
|---|---|
| Flight time | N/A |
| Altitude | 30100 |
| Route | UBMOG W615 IDAXI R473 BEMAG V5 ENVIP |
| Aircraft | A320/M-SDE3FGHIRWY/LB1 |
Departure
| Time | 2026-04-26 03:16 |
|---|---|
| Airport | Changsha Huanghua International Airport (ZGHA) |
Arrival
| Time | N/A |
|---|---|
| Airport | Guangzhou Baiyun International Airport (ZGGG) |
| Time | Latitude | Longitude | Altitude | Speed | Heading |
|---|---|---|---|---|---|
| 2026-04-26 02:49 | 28.18742 | 113.21594 | 214 ft | 0 kts | 268° |
| 2026-04-26 03:04 | 28.18742 | 113.21598 | 213 ft | 3 kts | 268° |
| 2026-04-26 03:05 | 28.18743 | 113.21629 | 213 ft | 4 kts | 268° |
| 2026-04-26 03:05 | 28.18744 | 113.21653 | 213 ft | 4 kts | 272° |
| 2026-04-26 03:05 | 28.18739 | 113.21680 | 214 ft | 4 kts | 314° |
| 2026-04-26 03:05 | 28.18717 | 113.21692 | 218 ft | 4 kts | 359° |
| 2026-04-26 03:06 | 28.18692 | 113.21691 | 215 ft | 2 kts | 357° |
| 2026-04-26 03:06 | 28.18691 | 113.21691 | 215 ft | 0 kts | 357° |
| 2026-04-26 03:08 | 28.18735 | 113.21688 | 214 ft | 17 kts | 356° |
| 2026-04-26 03:08 | 28.18855 | 113.21684 | 217 ft | 16 kts | 8° |
| 2026-04-26 03:08 | 28.18882 | 113.21740 | 217 ft | 10 kts | 87° |
| 2026-04-26 03:09 | 28.18994 | 113.21783 | 214 ft | 22 kts | 356° |
| 2026-04-26 03:09 | 28.19084 | 113.21778 | 215 ft | 11 kts | 357° |
| 2026-04-26 03:09 | 28.19228 | 113.21768 | 214 ft | 29 kts | 356° |
| 2026-04-26 03:09 | 28.19433 | 113.21752 | 217 ft | 30 kts | 355° |
| 2026-04-26 03:10 | 28.19630 | 113.21739 | 214 ft | 27 kts | 359° |
| 2026-04-26 03:10 | 28.19825 | 113.21733 | 214 ft | 29 kts | 358° |
| 2026-04-26 03:10 | 28.20032 | 113.21722 | 214 ft | 31 kts | 356° |
| 2026-04-26 03:10 | 28.20247 | 113.21706 | 214 ft | 27 kts | 356° |
| 2026-04-26 03:11 | 28.20433 | 113.21692 | 219 ft | 28 kts | 356° |
| 2026-04-26 03:11 | 28.20558 | 113.21685 | 214 ft | 7 kts | 358° |
| 2026-04-26 03:11 | 28.20559 | 113.21685 | 220 ft | 0 kts | 359° |
| 2026-04-26 03:12 | 28.20574 | 113.21686 | 215 ft | 13 kts | 5° |
| 2026-04-26 03:12 | 28.20610 | 113.21728 | 219 ft | 6 kts | 110° |
| 2026-04-26 03:13 | 28.20603 | 113.21755 | 221 ft | 0 kts | 80° |
| 2026-04-26 03:15 | 28.20606 | 113.21823 | 216 ft | 19 kts | 94° |
| 2026-04-26 03:15 | 28.20529 | 113.21879 | 216 ft | 10 kts | 174° |
| 2026-04-26 03:15 | 28.20519 | 113.21879 | 220 ft | 0 kts | 179° |
| 2026-04-26 03:16 | 28.20352 | 113.21886 | 216 ft | 61 kts | 178° |
| 2026-04-26 03:16 | 28.19704 | 113.21923 | 223 ft | 124 kts | 176° |
| 2026-04-26 03:16 | 28.18656 | 113.21993 | 399 ft | 157 kts | 177° |
| 2026-04-26 03:16 | 28.17571 | 113.22063 | 1067 ft | 158 kts | 177° |
| 2026-04-26 03:17 | 28.16452 | 113.22132 | 1741 ft | 165 kts | 177° |
| 2026-04-26 03:17 | 28.15245 | 113.22205 | 2150 ft | 187 kts | 178° |
| 2026-04-26 03:17 | 28.13863 | 113.22287 | 2643 ft | 207 kts | 179° |
| 2026-04-26 03:17 | 28.12417 | 113.22376 | 3468 ft | 212 kts | 178° |
| 2026-04-26 03:18 | 28.10939 | 113.22469 | 4035 ft | 213 kts | 177° |
| 2026-04-26 03:18 | 28.09498 | 113.22930 | 4749 ft | 221 kts | 146° |
| 2026-04-26 03:18 | 28.08580 | 113.24334 | 5449 ft | 232 kts | 106° |
| 2026-04-26 03:18 | 28.08373 | 113.26126 | 6215 ft | 237 kts | 96° |
| 2026-04-26 03:19 | 28.08255 | 113.27994 | 6991 ft | 241 kts | 95° |
| 2026-04-26 03:19 | 28.08147 | 113.29903 | 7758 ft | 246 kts | 94° |
| 2026-04-26 03:19 | 28.08036 | 113.31850 | 8503 ft | 251 kts | 93° |
| 2026-04-26 03:19 | 28.07919 | 113.33869 | 9146 ft | 264 kts | 93° |
| 2026-04-26 03:20 | 28.07786 | 113.36042 | 9495 ft | 287 kts | 93° |
| 2026-04-26 03:20 | 28.07637 | 113.38370 | 9953 ft | 304 kts | 93° |
| 2026-04-26 03:20 | 28.07478 | 113.40812 | 10343 ft | 325 kts | 93° |
| 2026-04-26 03:20 | 28.07303 | 113.43468 | 10617 ft | 349 kts | 93° |
| 2026-04-26 03:21 | 28.07110 | 113.46163 | 10812 ft | 371 kts | 95° |
| 2026-04-26 03:21 | 28.06811 | 113.49141 | 11037 ft | 390 kts | 96° |
| 2026-04-26 03:21 | 28.06437 | 113.52207 | 11604 ft | 398 kts | 97° |
| 2026-04-26 03:21 | 28.06024 | 113.55323 | 12237 ft | 402 kts | 98° |
| 2026-04-26 03:22 | 28.05606 | 113.58454 | 12886 ft | 407 kts | 98° |
| 2026-04-26 03:22 | 28.05102 | 113.61623 | 13508 ft | 412 kts | 106° |
| 2026-04-26 03:22 | 28.03909 | 113.64619 | 14107 ft | 415 kts | 124° |
| 2026-04-26 03:22 | 28.02021 | 113.67033 | 14651 ft | 417 kts | 142° |
| 2026-04-26 03:23 | 27.99548 | 113.68721 | 15194 ft | 416 kts | 161° |
| 2026-04-26 03:23 | 27.96742 | 113.69469 | 15730 ft | 414 kts | 179° |
| 2026-04-26 03:23 | 27.93892 | 113.69360 | 16329 ft | 413 kts | 188° |
| 2026-04-26 03:23 | 27.91009 | 113.69099 | 16923 ft | 416 kts | 188° |
| 2026-04-26 03:24 | 27.88076 | 113.68829 | 17496 ft | 419 kts | 188° |
| 2026-04-26 03:24 | 27.85209 | 113.68566 | 18049 ft | 422 kts | 188° |
| 2026-04-26 03:24 | 27.82264 | 113.68300 | 18541 ft | 425 kts | 188° |
| 2026-04-26 03:24 | 27.79290 | 113.68036 | 18990 ft | 429 kts | 188° |
| 2026-04-26 03:25 | 27.76314 | 113.67776 | 19430 ft | 433 kts | 188° |
| 2026-04-26 03:25 | 27.73305 | 113.67513 | 19850 ft | 436 kts | 188° |
| 2026-04-26 03:25 | 27.70245 | 113.67248 | 20293 ft | 440 kts | 188° |
| 2026-04-26 03:25 | 27.67196 | 113.66982 | 20707 ft | 443 kts | 188° |
| 2026-04-26 03:26 | 27.64098 | 113.66748 | 21133 ft | 447 kts | 184° |
| 2026-04-26 03:26 | 27.60954 | 113.66801 | 21544 ft | 452 kts | 182° |
| 2026-04-26 03:26 | 27.57857 | 113.66881 | 21939 ft | 455 kts | 182° |
| 2026-04-26 03:26 | 27.54663 | 113.66968 | 22339 ft | 458 kts | 182° |
| 2026-04-26 03:27 | 27.51466 | 113.67057 | 22726 ft | 461 kts | 182° |
| 2026-04-26 03:27 | 27.48270 | 113.67143 | 23107 ft | 464 kts | 182° |
| 2026-04-26 03:27 | 27.45395 | 113.67264 | 23424 ft | 469 kts | 178° |
| 2026-04-26 03:27 | 27.42092 | 113.67745 | 23740 ft | 473 kts | 175° |
| 2026-04-26 03:28 | 27.38882 | 113.68263 | 24044 ft | 476 kts | 175° |
| 2026-04-26 03:28 | 27.35582 | 113.68794 | 24363 ft | 478 kts | 175° |
| 2026-04-26 03:28 | 27.32267 | 113.69327 | 24651 ft | 480 kts | 175° |
| 2026-04-26 03:28 | 27.28947 | 113.69861 | 24927 ft | 483 kts | 175° |
| 2026-04-26 03:29 | 27.26671 | 113.70226 | 25131 ft | 484 kts | 175° |
| 2026-04-26 03:29 | 27.24346 | 113.70592 | 25337 ft | 485 kts | 176° |
| 2026-04-26 03:29 | 27.22604 | 113.70840 | 25489 ft | 486 kts | 176° |
| 2026-04-26 03:29 | 27.19248 | 113.71347 | 25774 ft | 488 kts | 175° |
| 2026-04-26 03:30 | 27.17674 | 113.71597 | 25899 ft | 489 kts | 175° |
| 2026-04-26 03:30 | 27.15079 | 113.72022 | 26102 ft | 491 kts | 174° |
| 2026-04-26 03:30 | 27.11692 | 113.72594 | 26362 ft | 493 kts | 175° |
| 2026-04-26 03:30 | 27.08287 | 113.73159 | 26622 ft | 495 kts | 175° |
| 2026-04-26 03:31 | 27.04863 | 113.73717 | 26860 ft | 497 kts | 175° |
| 2026-04-26 03:31 | 27.01435 | 113.74266 | 27092 ft | 498 kts | 175° |
| 2026-04-26 03:31 | 26.99698 | 113.74541 | 27197 ft | 499 kts | 175° |
| 2026-04-26 03:31 | 26.97737 | 113.74850 | 27310 ft | 500 kts | 175° |
| 2026-04-26 03:32 | 26.96557 | 113.75034 | 27374 ft | 500 kts | 175° |
| 2026-04-26 03:32 | 26.93072 | 113.75576 | 27523 ft | 503 kts | 176° |
| 2026-04-26 03:32 | 26.92635 | 113.75643 | 27546 ft | 503 kts | 175° |
| 2026-04-26 03:32 | 26.89809 | 113.76081 | 27741 ft | 503 kts | 175° |
| 2026-04-26 03:33 | 26.86368 | 113.76631 | 27992 ft | 503 kts | 175° |
| 2026-04-26 03:33 | 26.82903 | 113.77201 | 28258 ft | 502 kts | 175° |
| 2026-04-26 03:33 | 26.80506 | 113.77591 | 28463 ft | 502 kts | 175° |
| 2026-04-26 03:33 | 26.79389 | 113.77771 | 28556 ft | 501 kts | 175° |
| 2026-04-26 03:34 | 26.77141 | 113.78131 | 28735 ft | 501 kts | 175° |
| 2026-04-26 03:34 | 26.74153 | 113.78672 | 28960 ft | 503 kts | 171° |
| 2026-04-26 03:34 | 26.70716 | 113.79676 | 29230 ft | 504 kts | 167° |
| 2026-04-26 03:34 | 26.67346 | 113.80728 | 29489 ft | 504 kts | 167° |
| 2026-04-26 03:35 | 26.64032 | 113.81770 | 29745 ft | 504 kts | 167° |
| 2026-04-26 03:35 | 26.60612 | 113.82845 | 30029 ft | 504 kts | 167° |